Terminal Aerodrome Forecast
Issued by NWS

Current Version | Previous Version | Text Only | Print | Product List | Glossary Off
Versions: 1 2 3 4 5 6 7 8 9 10 11 12 13 14 15 16 17 18

000
FTUS41 KILN 181700
TAFLUK
TAF
KLUK 181728Z 1818/1918 31012G20KT P6SM OVC025
     FM182000 32012G20KT P6SM -SHRA BKN022
     FM190000 33010KT P6SM OVC022
     FM190800 34005KT P6SM SCT025
     FM191500 30004KT P6SM FEW040=

USA.gov is the U.S. government's official web portal to all federal, state and local government web resources and services.